createdAt,value
2022-12-25T00:01:38.866Z,68.40
2022-12-25T00:04:07.756Z,68.50
2022-12-25T00:06:36.664Z,70.00
2022-12-25T00:09:05.419Z,75.90
2022-12-25T00:11:34.221Z,72.80
2022-12-25T00:14:03.162Z,83.90
2022-12-25T00:16:32.119Z,76.50
2022-12-25T00:19:01.474Z,77.70
2022-12-25T00:21:30.382Z,79.00
2022-12-25T00:23:59.667Z,78.20
2022-12-25T00:26:28.662Z,84.70
2022-12-25T00:28:58.845Z,68.90
2022-12-25T00:31:27.772Z,70.00
2022-12-25T00:33:56.559Z,78.10
2022-12-25T00:36:25.363Z,73.40
2022-12-25T00:38:54.173Z,72.90
2022-12-25T00:41:42.608Z,75.40
2022-12-25T00:44:13.956Z,81.80
2022-12-25T00:46:43.944Z,85.70
2022-12-25T00:49:13.704Z,86.80
2022-12-25T00:51:42.500Z,79.20
2022-12-25T00:54:11.285Z,85.00
2022-12-25T00:56:40.224Z,84.70
2022-12-25T00:59:09.139Z,95.30
2022-12-25T01:01:39.021Z,93.10
2022-12-25T01:04:09.066Z,92.10
2022-12-25T01:06:38.236Z,86.90
2022-12-25T01:09:25.773Z,88.30
2022-12-25T01:11:54.532Z,91.40
2022-12-25T01:14:23.288Z,92.10
2022-12-25T01:16:52.153Z,89.20
2022-12-25T01:19:20.914Z,87.20
2022-12-25T01:21:49.695Z,91.80
2022-12-25T01:24:18.405Z,81.00
2022-12-25T01:26:47.202Z,78.20
2022-12-25T01:29:15.944Z,78.10
2022-12-25T01:31:44.769Z,84.70
2022-12-25T01:34:13.651Z,88.40
2022-12-25T01:36:42.379Z,85.50
2022-12-25T01:39:11.291Z,80.40
2022-12-25T01:41:40.015Z,83.90
2022-12-25T01:44:37.387Z,87.60
2022-12-25T01:47:08.264Z,88.40
2022-12-25T01:49:40.511Z,84.10
2022-12-25T01:52:23.830Z,78.00
2022-12-25T01:54:59.958Z,88.10
2022-12-25T01:57:36.376Z,84.30
2022-12-25T02:00:08.933Z,79.90
2022-12-25T02:02:39.213Z,70.20
2022-12-25T02:05:23.257Z,85.40
2022-12-25T02:07:53.196Z,84.20
2022-12-25T02:10:22.070Z,85.10
2022-12-25T02:12:51.613Z,89.90
2022-12-25T02:15:35.473Z,85.60
2022-12-25T02:18:34.279Z,91.10
2022-12-25T02:21:21.330Z,87.20
2022-12-25T02:24:19.205Z,84.30
2022-12-25T02:27:15.318Z,88.70
2022-12-25T02:30:02.273Z,85.50
2022-12-25T02:32:48.171Z,95.70
2022-12-25T02:35:31.502Z,84.70
2022-12-25T02:38:18.621Z,85.40
2022-12-25T02:40:56.372Z,89.50
2022-12-25T02:43:52.882Z,83.30
2022-12-25T02:46:42.797Z,88.10
2022-12-25T02:49:42.194Z,87.00
2022-12-25T02:52:35.018Z,82.60
2022-12-25T02:55:36.519Z,86.30
2022-12-25T02:58:56.085Z,84.50
2022-12-25T03:01:48.675Z,84.80
2022-12-25T03:04:42.482Z,86.50
2022-12-25T03:10:21.918Z,78.40
2022-12-25T03:13:03.727Z,86.40
2022-12-25T03:15:52.449Z,70.50
2022-12-25T03:18:27.600Z,83.50
2022-12-25T03:21:14.850Z,85.10
2022-12-25T03:24:08.285Z,79.50
2022-12-25T03:26:55.431Z,80.10
2022-12-25T03:29:47.711Z,83.30
2022-12-25T03:32:46.732Z,86.90
2022-12-25T03:35:35.004Z,87.30
2022-12-25T03:38:51.798Z,85.50
2022-12-25T03:42:02.480Z,79.40
2022-12-25T03:45:25.589Z,81.00
2022-12-25T03:48:49.979Z,80.30
2022-12-25T03:54:29.688Z,81.30
2022-12-25T03:57:17.104Z,79.40
2022-12-25T04:00:44.663Z,85.00
2022-12-25T04:03:31.742Z,85.20
2022-12-25T04:06:19.022Z,85.80
2022-12-25T04:09:06.259Z,81.20
2022-12-25T04:11:58.760Z,76.10
2022-12-25T04:14:49.260Z,82.80
2022-12-25T04:17:36.514Z,72.60
2022-12-25T04:20:24.668Z,84.20
2022-12-25T04:23:12.047Z,80.90
2022-12-25T04:25:59.106Z,78.80
2022-12-25T04:28:46.377Z,83.70
2022-12-25T04:31:33.517Z,86.50
2022-12-25T04:34:20.759Z,82.10
2022-12-25T04:36:49.506Z,60.10
2022-12-25T04:39:18.421Z,58.90
2022-12-25T04:41:47.187Z,50.70
2022-12-25T04:44:16.035Z,45.80
2022-12-25T04:46:44.907Z,49.70
2022-12-25T04:49:13.916Z,40.20
2022-12-25T04:51:42.617Z,40.40
2022-12-25T04:54:11.305Z,24.30
2022-12-25T04:56:45.376Z,23.70
2022-12-25T04:59:14.408Z,18.90
2022-12-25T05:01:43.209Z,16.80
2022-12-25T05:04:12.178Z,13.80
2022-12-25T05:06:41.166Z,15.40
2022-12-25T05:09:10.208Z,33.50
2022-12-25T05:11:39.010Z,25.90
2022-12-25T05:14:07.913Z,15.70
2022-12-25T05:16:36.792Z,13.70
2022-12-25T05:19:05.607Z,11.90
2022-12-25T05:21:34.299Z,9.00
2022-12-25T05:24:03.047Z,9.20
2022-12-25T05:26:31.816Z,9.40
2022-12-25T05:29:00.588Z,8.70
2022-12-25T05:31:29.405Z,9.70
2022-12-25T05:33:58.169Z,12.00
2022-12-25T05:36:27.232Z,7.70
2022-12-25T05:38:56.098Z,8.80
2022-12-25T05:41:30.648Z,7.60
2022-12-25T05:44:02.791Z,11.00
2022-12-25T05:46:31.659Z,8.30
2022-12-25T05:49:00.475Z,8.60
2022-12-25T05:51:31.046Z,9.70
2022-12-25T05:53:59.981Z,8.70
2022-12-25T05:56:28.856Z,8.50
2022-12-25T05:58:57.885Z,8.60
2022-12-25T06:01:28.927Z,9.30
2022-12-25T06:03:58.103Z,8.80
2022-12-25T06:06:27.148Z,11.40
2022-12-25T06:08:56.417Z,9.40
2022-12-25T06:11:25.265Z,8.90
2022-12-25T06:13:54.132Z,8.30
2022-12-25T06:16:23.089Z,9.90
2022-12-25T06:18:52.364Z,9.40
2022-12-25T06:21:21.122Z,11.40
2022-12-25T06:23:50.044Z,10.50
2022-12-25T06:26:20.037Z,10.00
2022-12-25T06:28:49.059Z,9.80
2022-12-25T06:31:22.204Z,11.10
2022-12-25T06:36:23.476Z,7.80
2022-12-25T06:38:53.363Z,10.10
2022-12-25T06:41:25.802Z,9.20
2022-12-25T06:43:57.643Z,10.50
2022-12-25T06:46:29.937Z,8.20
2022-12-25T06:49:00.116Z,9.70
2022-12-25T06:51:32.123Z,8.20
2022-12-25T06:54:04.491Z,9.10
2022-12-25T06:56:35.004Z,8.80
2022-12-25T06:59:09.920Z,8.70
2022-12-25T07:01:47.885Z,10.50
2022-12-25T07:04:24.354Z,9.00
2022-12-25T07:06:53.322Z,9.60
2022-12-25T07:09:22.173Z,11.20
2022-12-25T07:11:51.031Z,12.10
2022-12-25T07:14:24.441Z,9.80
2022-12-25T07:16:53.552Z,9.50
2022-12-25T07:19:22.600Z,10.70
2022-12-25T07:21:51.394Z,12.50
2022-12-25T07:24:22.050Z,11.20
2022-12-25T07:26:52.299Z,10.80
2022-12-25T07:29:21.067Z,9.90
2022-12-25T07:31:50.727Z,10.40
2022-12-25T07:34:20.230Z,11.70
2022-12-25T07:36:49.042Z,11.80
2022-12-25T07:39:18.233Z,10.30
2022-12-25T07:41:47.051Z,9.70
2022-12-25T07:44:34.593Z,10.80
2022-12-25T07:47:15.583Z,9.90
2022-12-25T07:49:44.362Z,9.80
2022-12-25T07:52:13.118Z,10.10
2022-12-25T07:54:41.800Z,8.80
2022-12-25T07:57:10.716Z,10.10
2022-12-25T07:59:46.781Z,8.30
2022-12-25T08:02:15.938Z,8.40
2022-12-25T08:04:45.337Z,10.70
2022-12-25T08:07:14.702Z,10.50
2022-12-25T08:09:43.502Z,11.70
2022-12-25T08:12:12.234Z,9.80
2022-12-25T08:14:41.295Z,10.70
2022-12-25T08:17:10.070Z,7.30
2022-12-25T08:19:38.741Z,8.80
2022-12-25T08:22:07.526Z,11.00
2022-12-25T08:24:36.443Z,11.40
2022-12-25T08:27:05.195Z,11.30
2022-12-25T08:29:34.002Z,11.80
2022-12-25T08:32:02.863Z,7.80
2022-12-25T08:34:31.623Z,9.40
2022-12-25T08:37:00.495Z,12.00
2022-12-25T08:39:29.373Z,8.80
2022-12-25T08:41:58.155Z,11.00
2022-12-25T08:44:26.886Z,9.70
2022-12-25T08:46:55.638Z,9.00
2022-12-25T08:49:27.566Z,8.40
2022-12-25T08:51:56.473Z,9.00
2022-12-25T08:54:25.466Z,9.70
2022-12-25T08:56:58.616Z,11.10
2022-12-25T08:59:31.263Z,7.70
2022-12-25T09:02:00.293Z,9.30
2022-12-25T09:04:29.205Z,9.00
2022-12-25T09:06:58.006Z,9.20
2022-12-25T09:09:28.582Z,9.50
2022-12-25T09:11:57.362Z,9.30
2022-12-25T09:14:26.143Z,8.60
2022-12-25T09:16:55.056Z,10.00
2022-12-25T09:19:23.818Z,9.50
2022-12-25T09:21:52.572Z,8.90
2022-12-25T09:24:21.489Z,9.70
2022-12-25T09:26:50.430Z,10.70
2022-12-25T09:29:19.238Z,7.60
2022-12-25T09:31:47.930Z,10.10
2022-12-25T09:34:18.955Z,10.00
2022-12-25T09:36:48.009Z,9.90
2022-12-25T09:39:16.726Z,10.50
2022-12-25T09:42:00.278Z,9.20
2022-12-25T09:44:40.977Z,10.50
2022-12-25T09:47:16.709Z,8.00
2022-12-25T09:50:08.189Z,11.00
2022-12-25T09:52:57.984Z,11.00
2022-12-25T09:55:31.069Z,10.50
2022-12-25T10:00:41.605Z,11.90
2022-12-25T10:03:40.495Z,13.00
2022-12-25T10:06:47.184Z,12.20
2022-12-25T10:10:03.251Z,10.00
2022-12-25T10:13:05.751Z,14.40
2022-12-25T10:16:15.850Z,11.60
2022-12-25T10:19:05.706Z,11.30
2022-12-25T10:21:34.625Z,12.10
2022-12-25T10:25:02.808Z,12.90
2022-12-25T10:27:43.177Z,11.80
2022-12-25T10:30:25.139Z,11.40
2022-12-25T10:32:57.328Z,13.60
2022-12-25T10:35:29.553Z,11.90
2022-12-25T10:38:07.067Z,14.80
2022-12-25T10:41:03.003Z,14.80
2022-12-25T10:43:46.604Z,11.40
2022-12-25T10:46:17.066Z,10.20
2022-12-25T10:48:59.467Z,13.20
2022-12-25T10:51:39.696Z,12.90
2022-12-25T10:54:36.153Z,12.00
2022-12-25T10:57:17.534Z,15.40
2022-12-25T10:59:53.053Z,13.40
2022-12-25T11:02:36.968Z,13.10
2022-12-25T11:05:15.183Z,14.10
2022-12-25T11:07:54.472Z,13.70
2022-12-25T11:10:36.887Z,13.50
2022-12-25T11:13:17.729Z,16.00
2022-12-25T11:16:02.634Z,15.00
2022-12-25T11:18:49.501Z,13.80
2022-12-25T11:21:30.525Z,15.00
2022-12-25T11:24:07.632Z,16.70
2022-12-25T11:26:57.706Z,18.90
2022-12-25T11:29:47.864Z,20.10
2022-12-25T11:32:31.619Z,15.90
2022-12-25T11:35:02.067Z,17.80
2022-12-25T11:37:51.027Z,16.50
2022-12-25T11:40:49.091Z,17.20
2022-12-25T11:43:21.975Z,16.00
2022-12-25T11:46:20.644Z,18.80
2022-12-25T11:49:03.619Z,18.80
2022-12-25T11:51:37.417Z,20.20
2022-12-25T11:54:30.736Z,17.90
2022-12-25T11:57:04.780Z,18.50
2022-12-25T11:59:52.067Z,18.60
2022-12-25T12:02:44.359Z,21.30
2022-12-25T12:05:25.671Z,18.60
2022-12-25T12:08:02.757Z,18.20
2022-12-25T12:10:54.567Z,19.60
2022-12-25T12:13:45.802Z,14.20
2022-12-25T12:16:14.754Z,13.30
2022-12-25T12:18:50.065Z,13.50
2022-12-25T12:21:31.113Z,12.50
2022-12-25T12:24:17.365Z,12.90
2022-12-25T12:27:02.727Z,14.10
2022-12-25T12:29:44.889Z,14.10
2022-12-25T12:32:44.750Z,16.90
2022-12-25T12:35:26.632Z,15.50
2022-12-25T12:38:02.408Z,14.30
2022-12-25T12:40:43.135Z,15.60
2022-12-25T12:43:47.748Z,12.10
2022-12-25T12:46:31.352Z,14.10
2022-12-25T12:49:25.184Z,14.40
2022-12-25T12:55:13.223Z,18.80
2022-12-25T12:57:43.042Z,13.00
2022-12-25T13:00:16.431Z,15.40
2022-12-25T13:03:06.360Z,14.00
2022-12-25T13:05:48.331Z,13.10
2022-12-25T13:08:20.239Z,14.50
2022-12-25T13:11:11.157Z,13.50
2022-12-25T13:13:44.115Z,13.10
2022-12-25T13:16:32.258Z,15.20
2022-12-25T13:19:06.172Z,13.20
2022-12-25T13:21:36.030Z,15.50
2022-12-25T13:24:18.609Z,14.80
2022-12-25T13:26:47.448Z,15.50
2022-12-25T13:29:39.167Z,13.00
2022-12-25T13:32:26.741Z,12.90
2022-12-25T13:34:55.900Z,15.10
2022-12-25T13:37:31.556Z,14.50
2022-12-25T13:40:26.296Z,13.90
2022-12-25T13:43:01.636Z,14.50
2022-12-25T13:45:31.852Z,12.80
2022-12-25T13:48:16.194Z,14.30
2022-12-25T13:50:48.708Z,15.80
2022-12-25T13:53:18.590Z,13.80
2022-12-25T13:55:52.770Z,14.60
2022-12-25T13:58:34.168Z,15.60
2022-12-25T14:01:03.965Z,15.10
2022-12-25T14:03:46.338Z,12.60
2022-12-25T14:06:27.748Z,20.00
2022-12-25T14:08:58.967Z,14.60
2022-12-25T14:11:31.490Z,14.50
2022-12-25T14:14:15.036Z,14.30
2022-12-25T14:16:48.967Z,15.40
2022-12-25T14:19:28.153Z,14.70
2022-12-25T14:22:06.176Z,16.50
2022-12-25T14:24:35.320Z,16.20
2022-12-25T14:27:17.595Z,19.30
2022-12-25T14:29:48.953Z,16.60
2022-12-25T14:32:24.559Z,15.90
2022-12-25T14:35:03.763Z,16.70
2022-12-25T14:37:34.330Z,14.80
2022-12-25T14:40:28.745Z,14.80
2022-12-25T14:43:04.495Z,15.50
2022-12-25T14:45:41.470Z,14.90
2022-12-25T14:48:25.264Z,15.30
2022-12-25T14:51:06.480Z,19.40
2022-12-25T14:54:01.546Z,17.90
2022-12-25T14:56:39.362Z,18.30
2022-12-25T14:59:24.037Z,19.70
2022-12-25T15:02:01.341Z,19.00
2022-12-25T15:04:30.744Z,16.90
2022-12-25T15:07:09.767Z,13.50
2022-12-25T15:09:40.543Z,17.90
2022-12-25T15:12:09.380Z,17.60
2022-12-25T15:14:40.420Z,20.30
2022-12-25T15:17:27.812Z,19.70
2022-12-25T15:20:01.275Z,20.10
2022-12-25T15:22:42.458Z,19.20
2022-12-25T15:25:20.694Z,18.20
2022-12-25T15:27:49.748Z,17.20
2022-12-25T15:30:18.891Z,17.30
2022-12-25T15:32:47.964Z,20.30
2022-12-25T15:35:22.054Z,20.90
2022-12-25T15:37:53.520Z,21.90
2022-12-25T15:40:22.312Z,20.90
2022-12-25T15:42:51.377Z,16.20
2022-12-25T15:45:29.048Z,20.10
2022-12-25T15:47:58.328Z,21.70
2022-12-25T15:50:27.135Z,21.20
2022-12-25T15:52:55.932Z,21.30
2022-12-25T15:55:24.926Z,18.90
2022-12-25T15:57:54.913Z,18.40
2022-12-25T16:00:25.972Z,19.40
2022-12-25T16:02:54.856Z,21.20
2022-12-25T16:05:23.907Z,20.00
2022-12-25T16:07:52.641Z,24.40
2022-12-25T16:10:22.904Z,23.20
2022-12-25T16:12:51.796Z,21.00
2022-12-25T16:15:21.168Z,21.30
2022-12-25T16:17:49.887Z,19.20
2022-12-25T16:20:18.674Z,18.20
2022-12-25T16:22:48.089Z,23.30
2022-12-25T16:25:20.069Z,23.10
2022-12-25T16:27:49.752Z,22.10
2022-12-25T16:30:22.003Z,17.70
2022-12-25T16:32:50.924Z,20.40
2022-12-25T16:35:19.723Z,16.90
2022-12-25T16:37:50.295Z,21.20
2022-12-25T16:40:20.081Z,20.40
2022-12-25T16:42:48.886Z,19.40
2022-12-25T16:45:17.945Z,20.40
2022-12-25T16:47:46.848Z,21.10
2022-12-25T16:50:16.623Z,19.80
2022-12-25T16:52:46.751Z,26.50
2022-12-25T16:55:15.516Z,19.90
2022-12-25T16:57:47.822Z,21.00
2022-12-25T17:00:18.330Z,24.30
2022-12-25T17:02:47.587Z,34.80
2022-12-25T17:05:16.980Z,25.60
2022-12-25T17:07:45.932Z,20.70
2022-12-25T17:10:14.714Z,64.40
2022-12-25T17:12:45.859Z,438.30
2022-12-25T17:15:15.319Z,28.40
2022-12-25T17:17:44.213Z,103.40
2022-12-25T17:20:13.342Z,28.20
2022-12-25T17:22:42.932Z,40.70
2022-12-25T17:25:11.812Z,35.10
2022-12-25T17:27:40.513Z,21.00
2022-12-25T17:30:10.756Z,22.50
2022-12-25T17:32:42.955Z,21.20
2022-12-25T17:35:11.715Z,23.40
2022-12-25T17:37:41.152Z,22.20
2022-12-25T17:40:11.150Z,20.00
2022-12-25T17:42:40.568Z,21.80
2022-12-25T17:45:10.287Z,23.40
2022-12-25T17:47:39.093Z,24.80
2022-12-25T17:50:08.976Z,21.30
2022-12-25T17:52:37.644Z,18.40
2022-12-25T17:55:07.372Z,18.50
2022-12-25T17:57:36.831Z,21.80
2022-12-25T18:00:07.399Z,19.90
2022-12-25T18:05:10.320Z,18.20
2022-12-25T18:07:39.852Z,25.60
2022-12-25T18:10:09.774Z,33.80
2022-12-25T18:12:39.207Z,22.00
2022-12-25T18:15:09.724Z,18.50
2022-12-25T18:17:41.781Z,19.60
2022-12-25T18:20:14.959Z,20.70
2022-12-25T18:22:44.270Z,20.70
2022-12-25T18:25:14.154Z,17.70
2022-12-25T18:27:42.908Z,18.60
2022-12-25T18:30:11.860Z,19.10
2022-12-25T18:32:41.166Z,18.00
2022-12-25T18:35:10.747Z,19.00
2022-12-25T18:38:29.705Z,19.90
2022-12-25T18:41:11.150Z,19.00
2022-12-25T18:43:52.497Z,18.90
2022-12-25T18:48:57.642Z,16.80
2022-12-25T18:54:06.407Z,19.90
2022-12-25T18:56:36.012Z,18.70
2022-12-25T18:59:04.831Z,18.90
2022-12-25T19:01:34.391Z,17.40
2022-12-25T19:04:05.640Z,17.90
2022-12-25T19:06:35.488Z,17.00
2022-12-25T19:09:11.122Z,15.30
2022-12-25T19:11:46.454Z,14.20
2022-12-25T19:14:16.607Z,14.70
2022-12-25T19:16:45.913Z,14.30
2022-12-25T19:19:15.236Z,13.20
2022-12-25T19:21:44.115Z,14.50
2022-12-25T19:24:14.334Z,14.30
2022-12-25T19:26:46.696Z,14.10
2022-12-25T19:29:15.719Z,13.30
2022-12-25T19:31:46.562Z,14.30
2022-12-25T19:34:20.345Z,14.90
2022-12-25T19:36:52.521Z,14.50
2022-12-25T19:39:28.304Z,16.30
2022-12-25T19:41:57.207Z,15.30
2022-12-25T19:44:26.789Z,12.60
2022-12-25T19:46:56.161Z,13.10
2022-12-25T19:49:25.595Z,13.10
2022-12-25T19:51:54.398Z,16.50
2022-12-25T19:54:23.219Z,15.10
2022-12-25T19:56:52.510Z,14.30
2022-12-25T19:59:22.609Z,12.10
2022-12-25T20:01:53.119Z,16.00
2022-12-25T20:04:22.211Z,15.80
2022-12-25T20:06:51.857Z,12.60
2022-12-25T20:09:21.456Z,14.70
2022-12-25T20:11:50.862Z,15.10
2022-12-25T20:14:19.893Z,13.70
2022-12-25T20:16:48.904Z,15.90
2022-12-25T20:19:17.746Z,15.30
2022-12-25T20:21:47.832Z,16.40
2022-12-25T20:24:16.771Z,18.60
2022-12-25T20:26:47.933Z,16.30
2022-12-25T20:29:28.717Z,15.90
2022-12-25T20:31:57.797Z,14.80
2022-12-25T20:34:26.633Z,14.80
2022-12-25T20:36:55.403Z,15.80
2022-12-25T20:39:24.300Z,15.40
2022-12-25T20:41:53.555Z,15.10
2022-12-25T20:44:22.404Z,14.70
2022-12-25T20:46:51.217Z,15.30
2022-12-25T20:49:20.024Z,15.50
2022-12-25T20:51:48.738Z,13.80
2022-12-25T20:54:17.520Z,14.10
2022-12-25T20:56:48.512Z,16.50
2022-12-25T20:59:17.485Z,15.10
2022-12-25T21:01:46.490Z,16.10
2022-12-25T21:04:16.663Z,15.40
2022-12-25T21:06:45.678Z,13.20
2022-12-25T21:09:14.575Z,12.20
2022-12-25T21:11:43.372Z,13.50
2022-12-25T21:14:12.198Z,12.00
2022-12-25T21:16:41.120Z,13.10
2022-12-25T21:19:10.035Z,12.60
2022-12-25T21:21:42.925Z,10.20
2022-12-25T21:24:11.755Z,13.30
2022-12-25T21:26:46.123Z,13.50
2022-12-25T21:29:18.160Z,11.60
2022-12-25T21:32:05.223Z,14.20
2022-12-25T21:34:34.336Z,13.80
2022-12-25T21:37:03.535Z,11.30
2022-12-25T21:39:33.177Z,13.20
2022-12-25T21:42:04.685Z,14.00
2022-12-25T21:44:33.521Z,13.50
2022-12-25T21:47:02.351Z,20.30
2022-12-25T21:49:49.233Z,16.40
2022-12-25T21:52:18.053Z,17.90
2022-12-25T21:54:46.920Z,19.10
2022-12-25T21:57:15.734Z,19.50
2022-12-25T21:59:45.666Z,26.30
2022-12-25T22:02:14.614Z,16.80
2022-12-25T22:04:43.742Z,23.10
2022-12-25T22:07:20.107Z,19.30
2022-12-25T22:09:51.412Z,17.90
2022-12-25T22:12:40.417Z,17.50
2022-12-25T22:15:11.148Z,17.60
2022-12-25T22:18:01.140Z,17.10
2022-12-25T22:20:34.989Z,15.70
2022-12-25T22:23:05.069Z,14.60
2022-12-25T22:25:33.893Z,15.30
2022-12-25T22:28:02.667Z,15.30
2022-12-25T22:30:32.153Z,77.50
2022-12-25T22:33:02.269Z,22.20
2022-12-25T22:35:31.104Z,17.30
2022-12-25T22:37:59.888Z,14.60
2022-12-25T22:40:28.632Z,17.70
2022-12-25T22:42:57.668Z,14.90
2022-12-25T22:45:26.366Z,15.70
2022-12-25T22:47:54.994Z,15.20
2022-12-25T22:50:24.257Z,15.50
2022-12-25T22:52:54.027Z,18.30
2022-12-25T22:55:22.779Z,14.70
2022-12-25T22:57:52.238Z,12.90
2022-12-25T23:00:21.188Z,14.60
2022-12-25T23:02:50.234Z,18.00
2022-12-25T23:05:19.155Z,14.00
2022-12-25T23:07:47.963Z,13.30
2022-12-25T23:10:16.782Z,17.60
2022-12-25T23:13:03.784Z,16.40
2022-12-25T23:15:32.748Z,16.10
2022-12-25T23:18:19.586Z,12.50
2022-12-25T23:21:07.303Z,16.50
2022-12-25T23:23:54.263Z,12.50
2022-12-25T23:26:23.155Z,12.70
2022-12-25T23:29:10.172Z,14.40
2022-12-25T23:31:41.796Z,17.00
2022-12-25T23:34:11.504Z,12.50
2022-12-25T23:36:40.251Z,13.40
2022-12-25T23:39:10.677Z,16.60
2022-12-25T23:41:41.637Z,16.60
2022-12-25T23:44:12.963Z,12.10
2022-12-25T23:46:53.178Z,14.50
2022-12-25T23:49:24.257Z,17.10
2022-12-25T23:51:54.429Z,17.20
2022-12-25T23:54:28.687Z,15.10
2022-12-25T23:56:58.451Z,15.20
2022-12-25T23:59:30.384Z,16.10
